Time;durP1;ratioP1;P1;durP2;ratioP2;P2;SDS_P1;SDS_P2;PMS_P1;PMS_P2;Temp;Humidity;BMP_temperature;BMP_pressure;BME280_temperature;BME280_humidity;BME280_pressure;Samples;Min_cycle;Max_cycle;Signal;HPM_P1;HPM_P2
2022/03/26 00:01:52;;;;;;;3.90;1.97;;;;;;;;;;5074561;28;20033;-79
2022/03/26 00:04:19;;;;;;;12.87;3.97;;;;;;;;;;5074242;28;20024;-80
2022/03/26 00:06:46;;;;;;;7.30;2.33;;;;;;;;;;5064913;28;20075;-79
2022/03/26 00:09:12;;;;;;;6.07;1.90;;;;;;;;;;5053888;28;20071;-79
2022/03/26 00:11:39;;;;;;;5.77;1.90;;;;;;;;;;5049080;28;20357;-80
2022/03/26 00:14:06;;;;;;;12.33;2.87;;;;;;;;;;5048709;28;20035;-78
2022/03/26 00:16:34;;;;;;;6.07;2.70;;;;;;;;;;5048941;28;20510;-79
2022/03/26 00:19:01;;;;;;;5.93;1.77;;;;;;;;;;5052666;28;20040;-79
2022/03/26 00:21:27;;;;;;;4.83;2.30;;;;;;;;;;5056558;28;20107;-79
2022/03/26 00:23:54;;;;;;;5.00;2.37;;;;;;;;;;5069086;28;20025;-79
2022/03/26 00:26:21;;;;;;;3.87;1.67;;;;;;;;;;5077581;28;20024;-79
2022/03/26 00:28:47;;;;;;;4.77;2.07;;;;;;;;;;5077311;28;20387;-78
2022/03/26 00:31:14;;;;;;;4.60;2.00;;;;;;;;;;5076370;28;20041;-78
2022/03/26 00:33:42;;;;;;;7.53;2.53;;;;;;;;;;5072552;28;20036;-79
2022/03/26 00:36:09;;;;;;;8.60;2.17;;;;;;;;;;5071067;28;20036;-79
2022/03/26 00:38:36;;;;;;;4.97;1.80;;;;;;;;;;5071214;28;20028;-80
2022/03/26 00:41:03;;;;;;;8.10;2.83;;;;;;;;;;5051048;28;20033;-80
2022/03/26 00:43:29;;;;;;;38.93;19.90;;;;;;;;;;5052447;28;20036;-78
2022/03/26 00:45:58;;;;;;;14.67;7.53;;;;;;;;;;5053456;28;20404;-79
2022/03/26 00:48:25;;;;;;;11.33;5.20;;;;;;;;;;5061365;28;20016;-79
2022/03/26 00:50:52;;;;;;;13.83;6.47;;;;;;;;;;5058362;28;20724;-78
2022/03/26 00:53:18;;;;;;;24.73;9.50;;;;;;;;;;5054414;28;20028;-79
2022/03/26 00:55:45;;;;;;;14.50;6.63;;;;;;;;;;5050149;28;20376;-79
2022/03/26 00:58:12;;;;;;;18.57;6.23;;;;;;;;;;5048583;28;20032;-79
2022/03/26 01:00:39;;;;;;;14.60;6.67;;;;;;;;;;5048583;28;20108;-79
2022/03/26 01:03:08;;;;;;;10.47;4.90;;;;;;;;;;5049088;28;20040;-79
2022/03/26 01:05:35;;;;;;;9.43;5.20;;;;;;;;;;5052293;28;20456;-78
2022/03/26 01:08:02;;;;;;;13.47;5.50;;;;;;;;;;5053895;28;20025;-79
2022/03/26 01:10:29;;;;;;;13.53;6.30;;;;;;;;;;5054215;28;20036;-78
2022/03/26 01:12:56;;;;;;;8.00;4.90;;;;;;;;;;5053963;28;20154;-78
2022/03/26 01:15:22;;;;;;;7.30;4.23;;;;;;;;;;5053938;28;20419;-79
2022/03/26 01:17:49;;;;;;;10.27;4.33;;;;;;;;;;5050460;28;20767;-79
2022/03/26 01:20:19;;;;;;;9.50;4.67;;;;;;;;;;5047591;28;20028;-80
2022/03/26 01:22:46;;;;;;;10.30;4.50;;;;;;;;;;5047908;28;20122;-78
2022/03/26 01:25:13;;;;;;;9.87;5.00;;;;;;;;;;5048321;28;20400;-78
2022/03/26 01:27:40;;;;;;;16.40;7.27;;;;;;;;;;5050539;28;20104;-78
2022/03/26 01:30:07;;;;;;;15.30;5.90;;;;;;;;;;5053172;28;20492;-78
2022/03/26 01:32:34;;;;;;;8.87;4.20;;;;;;;;;;5053364;28;20037;-79
2022/03/26 01:35:01;;;;;;;6.00;3.37;;;;;;;;;;5053169;28;20025;-79
2022/03/26 01:37:28;;;;;;;8.90;4.23;;;;;;;;;;5053050;28;20127;-78
2022/03/26 01:39:55;;;;;;;6.27;3.37;;;;;;;;;;5050678;28;20088;-79
2022/03/26 01:42:21;;;;;;;8.03;2.80;;;;;;;;;;5047881;28;20033;-80
2022/03/26 01:44:48;;;;;;;8.67;2.63;;;;;;;;;;5047742;28;20539;-79
2022/03/26 01:47:15;;;;;;;5.10;2.70;;;;;;;;;;5048054;28;20031;-78
2022/03/26 01:49:42;;;;;;;5.37;2.93;;;;;;;;;;5049754;28;20021;-79
2022/03/26 01:52:10;;;;;;;5.33;2.97;;;;;;;;;;5056578;28;20033;-78
2022/03/26 01:54:39;;;;;;;7.23;2.77;;;;;;;;;;5053188;28;20025;-79
2022/03/26 01:57:10;;;;;;;9.40;2.93;;;;;;;;;;5052928;28;20031;-78
2022/03/26 01:59:38;;;;;;;8.73;3.07;;;;;;;;;;5052565;28;20040;-77
2022/03/26 02:02:05;;;;;;;5.50;3.00;;;;;;;;;;5049567;28;20376;-78
2022/03/26 02:04:34;;;;;;;10.30;3.33;;;;;;;;;;5046865;28;20025;-77
2022/03/26 02:07:02;;;;;;;5.60;2.80;;;;;;;;;;5047960;28;20028;-77
2022/03/26 02:09:33;;;;;;;6.10;3.23;;;;;;;;;;5050591;28;20025;-77
2022/03/26 02:12:00;;;;;;;10.17;3.33;;;;;;;;;;5068644;28;20037;-78
2022/03/26 02:14:26;;;;;;;7.33;3.00;;;;;;;;;;5072286;28;20033;-77
2022/03/26 02:16:53;;;;;;;7.40;2.90;;;;;;;;;;5072203;28;20076;-77
2022/03/26 02:19:20;;;;;;;7.60;3.50;;;;;;;;;;5072291;28;20017;-78
2022/03/26 02:21:49;;;;;;;9.43;2.93;;;;;;;;;;5072109;28;20028;-78
2022/03/26 02:24:16;;;;;;;9.63;2.60;;;;;;;;;;5054444;28;20028;-79
2022/03/26 02:26:43;;;;;;;7.13;3.23;;;;;;;;;;5046835;28;20017;-78
2022/03/26 02:29:10;;;;;;;8.87;3.97;;;;;;;;;;5046808;28;20029;-78
2022/03/26 02:31:38;;;;;;;7.80;3.83;;;;;;;;;;5046901;28;20036;-78
2022/03/26 02:34:05;;;;;;;6.80;4.13;;;;;;;;;;5052159;28;20384;-79
2022/03/26 02:36:32;;;;;;;6.83;2.80;;;;;;;;;;5056123;28;20021;-79
2022/03/26 02:38:59;;;;;;;5.17;2.10;;;;;;;;;;5055704;28;20549;-78
2022/03/26 02:41:26;;;;;;;8.97;2.40;;;;;;;;;;5074650;28;20055;-78
2022/03/26 02:43:53;;;;;;;5.53;1.80;;;;;;;;;;5076149;28;20032;-78
2022/03/26 02:46:20;;;;;;;6.57;1.80;;;;;;;;;;5074503;28;20222;-78
2022/03/26 02:48:47;;;;;;;7.47;1.90;;;;;;;;;;5070635;28;20024;-78
2022/03/26 02:51:14;;;;;;;4.50;1.77;;;;;;;;;;5070421;28;20029;-78
2022/03/26 02:53:40;;;;;;;3.93;2.37;;;;;;;;;;5070659;28;20032;-78
2022/03/26 02:56:07;;;;;;;6.37;2.00;;;;;;;;;;5063027;28;20470;-79
2022/03/26 02:58:34;;;;;;;4.20;1.73;;;;;;;;;;5055937;28;20119;-78
2022/03/26 03:01:00;;;;;;;7.50;2.30;;;;;;;;;;5055716;28;20025;-77
2022/03/26 03:03:27;;;;;;;5.47;2.23;;;;;;;;;;5059183;28;20044;-78
2022/03/26 03:05:54;;;;;;;6.20;2.03;;;;;;;;;;5061932;28;20119;-73
2022/03/26 03:08:21;;;;;;;8.23;2.20;;;;;;;;;;5055201;28;20024;-77
2022/03/26 03:10:48;;;;;;;10.13;2.33;;;;;;;;;;5055541;28;20454;-77
2022/03/26 03:13:19;;;;;;;6.50;2.27;;;;;;;;;;5057234;28;20068;-78
2022/03/26 03:15:46;;;;;;;6.00;1.97;;;;;;;;;;5050408;28;20017;-77
2022/03/26 03:18:13;;;;;;;7.00;2.10;;;;;;;;;;5050746;28;20407;-77
2022/03/26 03:20:40;;;;;;;6.27;2.00;;;;;;;;;;5055947;28;20031;-77
2022/03/26 03:23:06;;;;;;;3.77;1.77;;;;;;;;;;5055586;28;20060;-77
2022/03/26 03:25:33;;;;;;;3.83;1.60;;;;;;;;;;5055698;28;20100;-77
2022/03/26 03:28:00;;;;;;;4.33;2.13;;;;;;;;;;5055533;28;20025;-77
2022/03/26 03:30:27;;;;;;;8.20;2.33;;;;;;;;;;5054836;28;20423;-77
2022/03/26 03:32:54;;;;;;;5.07;1.83;;;;;;;;;;5050162;28;20033;-77
2022/03/26 03:35:21;;;;;;;5.87;1.80;;;;;;;;;;5053511;28;20028;-77
2022/03/26 03:37:48;;;;;;;3.03;1.50;;;;;;;;;;5049948;28;20079;-77
2022/03/26 03:40:15;;;;;;;3.73;1.57;;;;;;;;;;5049674;28;20017;-77
2022/03/26 03:42:42;;;;;;;5.53;2.30;;;;;;;;;;5054833;28;20033;-77
2022/03/26 03:45:09;;;;;;;5.77;1.50;;;;;;;;;;5054380;28;20379;-77
2022/03/26 03:47:37;;;;;;;6.53;1.60;;;;;;;;;;5055163;28;20476;-77
2022/03/26 03:50:05;;;;;;;4.80;1.60;;;;;;;;;;5068078;28;20464;-77
2022/03/26 03:52:31;;;;;;;5.57;1.80;;;;;;;;;;5075209;28;20028;-77
2022/03/26 03:54:58;;;;;;;9.03;1.80;;;;;;;;;;5069822;28;20064;-77
2022/03/26 03:57:25;;;;;;;7.23;2.37;;;;;;;;;;5067928;28;20017;-77
2022/03/26 03:59:52;;;;;;;8.43;2.03;;;;;;;;;;5069589;28;20052;-77
2022/03/26 04:02:19;;;;;;;2.73;1.40;;;;;;;;;;5043759;28;20032;-79
2022/03/26 04:04:46;;;;;;;3.53;1.77;;;;;;;;;;5074199;28;20020;-77
2022/03/26 04:07:13;;;;;;;5.60;2.13;;;;;;;;;;5075180;28;20028;-77
2022/03/26 04:09:39;;;;;;;4.57;1.67;;;;;;;;;;5075114;28;20073;-77
2022/03/26 04:12:06;;;;;;;10.13;1.70;;;;;;;;;;5075092;28;20017;-77
2022/03/26 04:14:35;;;;;;;7.10;1.60;;;;;;;;;;5074764;28;20498;-77
2022/03/26 04:17:02;;;;;;;6.47;1.90;;;;;;;;;;5061323;28;20079;-77
2022/03/26 04:19:29;;;;;;;8.23;1.80;;;;;;;;;;5049407;28;20069;-77
2022/03/26 04:21:56;;;;;;;8.77;2.00;;;;;;;;;;5048862;28;20035;-77
2022/03/26 04:24:23;;;;;;;4.40;1.97;;;;;;;;;;5049390;28;20100;-77
2022/03/26 04:26:50;;;;;;;9.10;1.87;;;;;;;;;;5053232;28;20036;-76
2022/03/26 04:29:17;;;;;;;6.83;1.97;;;;;;;;;;5054626;28;20384;-76
2022/03/26 04:31:45;;;;;;;5.37;2.13;;;;;;;;;;5054511;28;20037;-76
2022/03/26 04:34:12;;;;;;;7.73;2.67;;;;;;;;;;5056559;28;20021;-76
2022/03/26 04:36:39;;;;;;;8.93;2.10;;;;;;;;;;5054573;28;20049;-76
2022/03/26 04:39:06;;;;;;;8.00;2.17;;;;;;;;;;5049963;28;20880;-77
2022/03/26 04:41:32;;;;;;;5.00;1.90;;;;;;;;;;5048977;28;20037;-77
2022/03/26 04:43:59;;;;;;;4.33;1.90;;;;;;;;;;5049876;28;20379;-77
2022/03/26 04:46:26;;;;;;;7.27;1.80;;;;;;;;;;5048816;28;20116;-77
2022/03/26 04:48:52;;;;;;;5.87;2.10;;;;;;;;;;5053177;28;20033;-72
2022/03/26 04:51:19;;;;;;;6.00;2.20;;;;;;;;;;5046805;28;20112;-73
2022/03/26 04:53:46;;;;;;;5.73;2.03;;;;;;;;;;5036041;28;20060;-72
2022/03/26 04:56:14;;;;;;;6.67;2.23;;;;;;;;;;5054743;28;20097;-70
2022/03/26 04:58:40;;;;;;;5.23;2.27;;;;;;;;;;5066852;28;20024;-72
2022/03/26 05:01:07;;;;;;;6.17;2.70;;;;;;;;;;5049808;28;20496;-76
2022/03/26 05:03:34;;;;;;;5.87;2.60;;;;;;;;;;5060268;28;20111;-72
2022/03/26 05:06:01;;;;;;;5.53;1.80;;;;;;;;;;5068204;28;20599;-72
2022/03/26 05:08:27;;;;;;;5.27;1.80;;;;;;;;;;5050506;28;20025;-73
2022/03/26 05:10:54;;;;;;;5.23;2.20;;;;;;;;;;5050742;28;20016;-73
2022/03/26 05:13:21;;;;;;;7.63;2.43;;;;;;;;;;5053399;28;20120;-73
2022/03/26 05:15:48;;;;;;;7.73;2.00;;;;;;;;;;5053286;28;20459;-74
2022/03/26 05:18:14;;;;;;;5.50;1.80;;;;;;;;;;5056545;28;20079;-73
2022/03/26 05:20:41;;;;;;;5.97;2.00;;;;;;;;;;5053085;28;20023;-74
2022/03/26 05:23:08;;;;;;;10.13;2.40;;;;;;;;;;5050002;28;20039;-73
2022/03/26 05:25:36;;;;;;;4.93;1.83;;;;;;;;;;5029970;28;20021;-71
2022/03/26 05:28:03;;;;;;;5.90;1.80;;;;;;;;;;5027678;28;20029;-72
2022/03/26 05:30:29;;;;;;;8.80;2.50;;;;;;;;;;5027695;28;20025;-74
2022/03/26 05:32:56;;;;;;;5.10;1.80;;;;;;;;;;5041531;28;20032;-77
2022/03/26 05:35:23;;;;;;;5.13;1.87;;;;;;;;;;5052953;28;20051;-74
2022/03/26 05:37:50;;;;;;;5.83;2.00;;;;;;;;;;5052762;28;20025;-74
2022/03/26 05:40:18;;;;;;;7.77;1.90;;;;;;;;;;5052764;28;20119;-76
2022/03/26 05:42:45;;;;;;;17.13;2.53;;;;;;;;;;5052712;28;20033;-75
2022/03/26 05:45:13;;;;;;;3.53;1.70;;;;;;;;;;5050019;28;20029;-74
2022/03/26 05:47:39;;;;;;;6.93;2.00;;;;;;;;;;5047444;28;20410;-73
2022/03/26 05:50:07;;;;;;;11.33;1.97;;;;;;;;;;5065332;28;20059;-73
2022/03/26 05:52:34;;;;;;;6.50;2.17;;;;;;;;;;5067260;28;20549;-74
2022/03/26 05:55:01;;;;;;;7.93;2.53;;;;;;;;;;5069025;28;20383;-72
2022/03/26 05:57:27;;;;;;;5.27;2.00;;;;;;;;;;5072344;28;20033;-73
2022/03/26 05:59:57;;;;;;;9.73;2.53;;;;;;;;;;5053347;28;20753;-72
2022/03/26 06:02:24;;;;;;;3.80;1.83;;;;;;;;;;5052209;28;20041;-72
2022/03/26 06:04:51;;;;;;;11.53;2.67;;;;;;;;;;5058577;28;20028;-71
2022/03/26 06:07:17;;;;;;;19.20;2.97;;;;;;;;;;5069699;28;20027;-79
2022/03/26 06:09:44;;;;;;;8.37;2.30;;;;;;;;;;5067115;28;20048;-73
2022/03/26 06:12:11;;;;;;;8.27;2.83;;;;;;;;;;5066801;28;20028;-72
2022/03/26 06:14:38;;;;;;;10.90;3.77;;;;;;;;;;5066866;28;20056;-77
2022/03/26 06:17:04;;;;;;;10.53;3.67;;;;;;;;;;5067086;28;20088;-76
2022/03/26 06:19:31;;;;;;;8.13;3.57;;;;;;;;;;5070183;28;20095;-77
2022/03/26 06:21:58;;;;;;;11.23;3.83;;;;;;;;;;5057015;28;20415;-77
2022/03/26 06:24:25;;;;;;;9.73;4.33;;;;;;;;;;5050243;28;20028;-76
2022/03/26 06:26:51;;;;;;;14.60;3.70;;;;;;;;;;5049915;28;20025;-78
2022/03/26 06:29:18;;;;;;;12.00;3.43;;;;;;;;;;5049128;28;20054;-77
2022/03/26 06:31:45;;;;;;;9.27;2.57;;;;;;;;;;5046083;28;20556;-77
2022/03/26 06:34:12;;;;;;;7.07;2.17;;;;;;;;;;5046596;28;20025;-77
2022/03/26 06:36:39;;;;;;;7.90;2.30;;;;;;;;;;5046152;28;20043;-77
2022/03/26 06:39:06;;;;;;;7.53;2.10;;;;;;;;;;5048591;28;20091;-77
2022/03/26 06:41:35;;;;;;;5.97;2.50;;;;;;;;;;5052002;28;20113;-77
2022/03/26 06:44:02;;;;;;;4.93;2.23;;;;;;;;;;5051660;28;20028;-77
2022/03/26 06:46:29;;;;;;;5.83;1.87;;;;;;;;;;5052006;28;20033;-77
2022/03/26 06:48:55;;;;;;;5.37;1.97;;;;;;;;;;5052123;28;20096;-77
2022/03/26 06:51:22;;;;;;;7.50;2.13;;;;;;;;;;5050715;28;20499;-77
2022/03/26 06:53:49;;;;;;;4.73;1.90;;;;;;;;;;5049671;28;20138;-77
2022/03/26 06:56:16;;;;;;;5.20;2.00;;;;;;;;;;5066464;28;20082;-77
2022/03/26 06:58:44;;;;;;;9.27;2.50;;;;;;;;;;5066221;28;20025;-78
2022/03/26 07:01:11;;;;;;;5.73;1.93;;;;;;;;;;5067136;28;20060;-77
2022/03/26 07:03:38;;;;;;;10.30;1.90;;;;;;;;;;5063175;28;20040;-77
2022/03/26 07:06:05;;;;;;;7.67;2.17;;;;;;;;;;5051866;28;20112;-77
2022/03/26 07:08:32;;;;;;;11.10;1.80;;;;;;;;;;5051738;28;20029;-77
2022/03/26 07:10:59;;;;;;;5.07;2.47;;;;;;;;;;5051499;28;20037;-76
2022/03/26 07:13:26;;;;;;;10.63;2.50;;;;;;;;;;5050819;28;20039;-76
2022/03/26 07:15:53;;;;;;;5.13;1.70;;;;;;;;;;5046058;28;20430;-77
2022/03/26 07:18:19;;;;;;;4.53;2.07;;;;;;;;;;5049388;28;20017;-76
2022/03/26 07:20:46;;;;;;;10.00;2.10;;;;;;;;;;5049699;28;20025;-76
2022/03/26 07:23:13;;;;;;;8.83;3.23;;;;;;;;;;5050010;28;20146;-76
2022/03/26 07:25:40;;;;;;;7.30;2.83;;;;;;;;;;5055235;28;20040;-76
2022/03/26 07:28:07;;;;;;;9.93;2.70;;;;;;;;;;5054900;28;20029;-76
2022/03/26 07:30:34;;;;;;;4.43;2.17;;;;;;;;;;5054946;28;20028;-77
2022/03/26 07:33:01;;;;;;;6.30;2.20;;;;;;;;;;5061834;28;20571;-76
2022/03/26 07:35:30;;;;;;;8.83;2.40;;;;;;;;;;5074872;28;20054;-76
2022/03/26 07:37:56;;;;;;;7.83;1.97;;;;;;;;;;5069764;28;20475;-77
2022/03/26 07:40:23;;;;;;;8.50;2.27;;;;;;;;;;5069648;28;20078;-77
2022/03/26 07:42:50;;;;;;;7.40;1.80;;;;;;;;;;5069477;28;20028;-77
2022/03/26 07:45:17;;;;;;;6.40;2.07;;;;;;;;;;5069401;28;20082;-77
2022/03/26 07:47:43;;;;;;;8.30;2.10;;;;;;;;;;5074505;28;20024;-77
2022/03/26 07:50:10;;;;;;;4.87;1.83;;;;;;;;;;5064013;28;20087;-77
2022/03/26 07:52:38;;;;;;;5.23;2.00;;;;;;;;;;5054657;28;20096;-77
2022/03/26 07:55:05;;;;;;;4.90;1.80;;;;;;;;;;5054943;28;20052;-77
2022/03/26 07:57:32;;;;;;;3.30;1.53;;;;;;;;;;5054573;28;20017;-76
2022/03/26 07:59:59;;;;;;;3.93;1.77;;;;;;;;;;5049361;28;20043;-77
2022/03/26 08:02:25;;;;;;;8.63;2.17;;;;;;;;;;5048645;28;20514;-77
2022/03/26 08:04:52;;;;;;;7.53;2.17;;;;;;;;;;5049192;28;20266;-77
2022/03/26 08:07:21;;;;;;;5.77;2.23;;;;;;;;;;5062951;28;20224;-77
2022/03/26 08:09:48;;;;;;;8.00;2.37;;;;;;;;;;5062180;28;20492;-77
2022/03/26 08:12:15;;;;;;;5.17;1.67;;;;;;;;;;5054502;28;20029;-76
2022/03/26 08:14:42;;;;;;;9.33;2.30;;;;;;;;;;5054227;28;20261;-76
2022/03/26 08:17:09;;;;;;;8.47;2.30;;;;;;;;;;5053964;28;20254;-77
2022/03/26 08:19:36;;;;;;;4.87;2.27;;;;;;;;;;5054225;28;20271;-77
2022/03/26 08:22:03;;;;;;;6.33;3.47;;;;;;;;;;5049119;28;20343;-76
2022/03/26 08:24:30;;;;;;;6.17;2.50;;;;;;;;;;5061002;28;20103;-77
2022/03/26 08:26:57;;;;;;;8.07;2.43;;;;;;;;;;5068837;28;20250;-77
2022/03/26 08:29:24;;;;;;;6.17;2.17;;;;;;;;;;5068151;28;20261;-77
2022/03/26 08:31:51;;;;;;;5.17;2.57;;;;;;;;;;5070949;28;20356;-76
2022/03/26 08:34:18;;;;;;;9.07;2.63;;;;;;;;;;5073599;28;20264;-77
2022/03/26 08:36:45;;;;;;;11.87;2.77;;;;;;;;;;5073795;28;20776;-77
2022/03/26 08:39:12;;;;;;;10.60;3.07;;;;;;;;;;5073934;28;20261;-76
2022/03/26 08:41:38;;;;;;;7.20;2.53;;;;;;;;;;5054064;28;20266;-76
2022/03/26 08:44:05;;;;;;;12.30;2.60;;;;;;;;;;5049606;28;20266;-77
2022/03/26 08:46:34;;;;;;;10.70;2.60;;;;;;;;;;5063977;28;20606;-77
2022/03/26 08:49:00;;;;;;;8.17;2.30;;;;;;;;;;5063747;28;20719;-77
2022/03/26 08:51:27;;;;;;;6.77;2.43;;;;;;;;;;5048191;28;20258;-76
2022/03/26 08:53:54;;;;;;;8.37;2.50;;;;;;;;;;5051631;28;20294;-75
2022/03/26 08:56:21;;;;;;;12.40;2.87;;;;;;;;;;5072846;28;20656;-76
2022/03/26 08:58:48;;;;;;;11.23;2.00;;;;;;;;;;5053519;28;20270;-76
2022/03/26 09:01:15;;;;;;;4.93;2.27;;;;;;;;;;5053464;28;20624;-76
2022/03/26 09:03:43;;;;;;;5.93;1.90;;;;;;;;;;5053074;28;20270;-77
2022/03/26 09:06:10;;;;;;;10.97;2.73;;;;;;;;;;5049401;28;20262;-76
2022/03/26 09:08:37;;;;;;;7.47;2.50;;;;;;;;;;5048021;28;20289;-76
2022/03/26 09:11:05;;;;;;;11.90;2.77;;;;;;;;;;5049532;28;20270;-76
2022/03/26 09:13:33;;;;;;;9.47;2.70;;;;;;;;;;5067836;28;20305;-76
2022/03/26 09:15:59;;;;;;;6.70;3.00;;;;;;;;;;5070971;28;20736;-76
2022/03/26 09:18:26;;;;;;;7.90;2.70;;;;;;;;;;5073033;28;20256;-76
2022/03/26 09:20:53;;;;;;;6.63;2.70;;;;;;;;;;5072624;28;20344;-76
2022/03/26 09:23:20;;;;;;;12.33;3.33;;;;;;;;;;5073016;28;20288;-76
2022/03/26 09:25:47;;;;;;;5.33;2.57;;;;;;;;;;5073120;28;20732;-76
2022/03/26 09:28:13;;;;;;;8.57;3.07;;;;;;;;;;5061268;28;20258;-76
2022/03/26 09:30:40;;;;;;;8.40;2.97;;;;;;;;;;5047581;28;20270;-77
2022/03/26 09:33:07;;;;;;;9.90;2.37;;;;;;;;;;5047338;28;20266;-76
2022/03/26 09:35:33;;;;;;;14.17;2.37;;;;;;;;;;5047336;28;20653;-77
2022/03/26 09:38:00;;;;;;;8.90;2.87;;;;;;;;;;5050204;28;20258;-76
2022/03/26 09:40:27;;;;;;;12.03;2.97;;;;;;;;;;5052610;28;20266;-76
2022/03/26 09:42:54;;;;;;;10.47;2.70;;;;;;;;;;5051682;28;20285;-76
2022/03/26 09:45:22;;;;;;;6.13;2.63;;;;;;;;;;5053373;28;20270;-76
2022/03/26 09:47:49;;;;;;;11.43;2.50;;;;;;;;;;5052568;28;20620;-76
2022/03/26 09:50:17;;;;;;;9.87;3.10;;;;;;;;;;5049677;28;20284;-76
2022/03/26 09:52:44;;;;;;;9.37;2.50;;;;;;;;;;5046896;28;20274;-77
2022/03/26 09:55:13;;;;;;;11.97;2.83;;;;;;;;;;5047008;28;20349;-76
2022/03/26 09:57:41;;;;;;;9.83;2.73;;;;;;;;;;5047160;28;20864;-77
2022/03/26 10:00:09;;;;;;;8.83;2.77;;;;;;;;;;5049933;28;20811;-76
2022/03/26 10:02:36;;;;;;;8.10;2.57;;;;;;;;;;5052050;28;20318;-76
2022/03/26 10:05:04;;;;;;;5.43;2.17;;;;;;;;;;5052529;28;20264;-76
2022/03/26 10:07:31;;;;;;;7.27;2.83;;;;;;;;;;5051896;28;20308;-77
2022/03/26 10:09:58;;;;;;;5.67;2.40;;;;;;;;;;5052300;28;20255;-76
2022/03/26 10:12:28;;;;;;;7.13;3.37;;;;;;;;;;5049537;28;20258;-77
2022/03/26 10:14:58;;;;;;;8.03;2.37;;;;;;;;;;5050150;28;20261;-76
2022/03/26 10:17:26;;;;;;;13.23;3.10;;;;;;;;;;5066879;28;20257;-76
2022/03/26 10:19:52;;;;;;;12.07;3.57;;;;;;;;;;5066814;28;20297;-76
2022/03/26 10:22:25;;;;;;;7.53;2.73;;;;;;;;;;5068784;28;20285;-76
2022/03/26 10:24:52;;;;;;;7.20;2.53;;;;;;;;;;5072263;28;20261;-76
2022/03/26 10:27:19;;;;;;;6.50;2.47;;;;;;;;;;5072072;28;20821;-76
2022/03/26 10:29:53;;;;;;;7.87;2.13;;;;;;;;;;5072068;28;20261;-76
2022/03/26 10:32:39;;;;;;;12.63;3.10;;;;;;;;;;5059953;28;20753;-76
2022/03/26 10:35:07;;;;;;;9.23;3.00;;;;;;;;;;5048322;28;20249;-76
2022/03/26 10:37:56;;;;;;;10.23;3.13;;;;;;;;;;5046524;28;20289;-76
2022/03/26 10:40:22;;;;;;;7.40;2.30;;;;;;;;;;5046730;28;20306;-77
2022/03/26 10:43:08;;;;;;;9.27;2.67;;;;;;;;;;5046529;28;20777;-76
2022/03/26 10:45:37;;;;;;;10.37;3.93;;;;;;;;;;5051228;28;20262;-76
2022/03/26 10:48:08;;;;;;;8.17;2.60;;;;;;;;;;5060392;28;20305;-76
2022/03/26 10:50:35;;;;;;;10.47;2.77;;;;;;;;;;5071608;28;20308;-77
2022/03/26 10:53:10;;;;;;;7.20;2.57;;;;;;;;;;5072506;28;20356;-76
2022/03/26 10:55:39;;;;;;;6.88;2.47;;;;;;;;;;5075980;28;20277;-76
2022/03/26 10:58:06;;;;;;;4.90;2.20;;;;;;;;;;5070354;28;20048;-76
2022/03/26 11:00:33;;;;;;;6.13;2.57;;;;;;;;;;5070513;28;20261;-77
2022/03/26 11:03:00;;;;;;;4.90;2.40;;;;;;;;;;5070294;28;20281;-76
2022/03/26 11:05:27;;;;;;;6.43;2.27;;;;;;;;;;5051352;28;20293;-76
2022/03/26 11:07:54;;;;;;;4.23;1.90;;;;;;;;;;5055009;28;20250;-76
2022/03/26 11:10:24;;;;;;;4.70;2.17;;;;;;;;;;5055380;28;20317;-76
2022/03/26 11:12:51;;;;;;;8.10;2.53;;;;;;;;;;5055649;28;20250;-76
2022/03/26 11:15:22;;;;;;;4.57;2.33;;;;;;;;;;5055438;28;20759;-76
2022/03/26 11:18:07;;;;;;;9.33;2.00;;;;;;;;;;5055289;28;20781;-77
2022/03/26 11:20:43;;;;;;;4.57;2.65;;;;;;;;;;5054996;28;20257;-76
2022/03/26 11:23:09;;;;;;;6.87;2.50;;;;;;;;;;5069933;28;20078;-76
2022/03/26 11:25:43;;;;;;;4.40;2.20;;;;;;;;;;5070166;28;20314;-76
2022/03/26 11:28:29;;;;;;;4.73;2.07;;;;;;;;;;5069851;28;20352;-77
2022/03/26 11:31:01;;;;;;;4.30;2.08;;;;;;;;;;5075452;28;20264;-76
2022/03/26 11:33:33;;;;;;;7.23;2.60;;;;;;;;;;5075149;28;20119;-76
2022/03/26 11:36:01;;;;;;;3.70;2.20;;;;;;;;;;5074670;28;20256;-76
2022/03/26 11:38:29;;;;;;;7.00;3.10;;;;;;;;;;5074729;28;20257;-76
2022/03/26 11:40:57;;;;;;;5.10;2.37;;;;;;;;;;5073061;28;20297;-76
2022/03/26 11:43:42;;;;;;;4.50;2.77;;;;;;;;;;5069362;28;20281;-76
2022/03/26 11:51:58;;;;;;;4.53;2.10;;;;;;;;;;5072705;28;20323;-76
2022/03/26 11:54:25;;;;;;;6.03;1.87;;;;;;;;;;5072932;28;20039;-76
2022/03/26 11:57:10;;;;;;;5.57;3.13;;;;;;;;;;5074793;28;20762;-76
2022/03/26 11:59:37;;;;;;;4.88;2.38;;;;;;;;;;5074849;28;20790;-76
2022/03/26 12:02:17;;;;;;;8.77;2.70;;;;;;;;;;5073970;28;20025;-77
2022/03/26 12:04:48;;;;;;;5.60;2.37;;;;;;;;;;5068272;28;20304;-76
2022/03/26 12:07:16;;;;;;;5.40;2.37;;;;;;;;;;5069110;28;20315;-76
2022/03/26 12:09:43;;;;;;;3.77;1.90;;;;;;;;;;5064203;28;20316;-76
2022/03/26 12:12:16;;;;;;;5.50;2.20;;;;;;;;;;5049022;28;20315;-76
2022/03/26 12:15:02;;;;;;;7.47;2.93;;;;;;;;;;5054041;28;20269;-76
2022/03/26 12:17:45;;;;;;;9.52;2.50;;;;;;;;;;5054091;28;20344;-76
2022/03/26 12:20:23;;;;;;;5.90;2.13;;;;;;;;;;5054265;28;20384;-76
2022/03/26 12:22:50;;;;;;;5.07;2.40;;;;;;;;;;5054474;28;20296;-76
2022/03/26 12:25:17;;;;;;;4.37;2.10;;;;;;;;;;5052374;28;20345;-76
2022/03/26 12:27:44;;;;;;;6.97;2.40;;;;;;;;;;5064422;28;20671;-77
2022/03/26 12:30:11;;;;;;;4.97;2.40;;;;;;;;;;5068729;28;20398;-76
2022/03/26 12:32:39;;;;;;;6.73;2.90;;;;;;;;;;5068558;28;20360;-76
2022/03/26 12:35:07;;;;;;;4.17;2.20;;;;;;;;;;5068976;28;20308;-76
2022/03/26 12:37:34;;;;;;;5.37;2.20;;;;;;;;;;5073828;28;20253;-76
2022/03/26 12:40:01;;;;;;;3.53;1.90;;;;;;;;;;5074007;28;20256;-76
2022/03/26 12:42:28;;;;;;;7.00;2.27;;;;;;;;;;5069095;28;20289;-76
2022/03/26 12:44:54;;;;;;;5.97;2.43;;;;;;;;;;5053729;28;20258;-76
2022/03/26 12:47:24;;;;;;;9.23;2.27;;;;;;;;;;5052344;28;20250;-76
2022/03/26 12:49:54;;;;;;;6.43;2.00;;;;;;;;;;5048040;28;20258;-76
2022/03/26 12:52:22;;;;;;;6.53;2.10;;;;;;;;;;5048158;28;20262;-76
2022/03/26 12:54:56;;;;;;;5.83;2.83;;;;;;;;;;5048213;28;20297;-75
2022/03/26 12:57:23;;;;;;;6.65;1.92;;;;;;;;;;5049317;28;20246;-76
2022/03/26 12:59:53;;;;;;;6.47;2.30;;;;;;;;;;5054382;28;20017;-76
2022/03/26 13:02:21;;;;;;;4.70;2.20;;;;;;;;;;5052888;28;20828;-77
2022/03/26 13:04:54;;;;;;;6.20;2.13;;;;;;;;;;5053388;28;20262;-76
2022/03/26 13:07:21;;;;;;;8.53;2.70;;;;;;;;;;5053111;28;20256;-76
2022/03/26 13:09:57;;;;;;;8.53;2.30;;;;;;;;;;5051213;28;20256;-76
2022/03/26 13:12:24;;;;;;;6.13;3.50;;;;;;;;;;5047984;28;20258;-76
2022/03/26 13:14:51;;;;;;;7.13;3.53;;;;;;;;;;5047578;28;20268;-77
2022/03/26 13:17:20;;;;;;;10.77;3.63;;;;;;;;;;5065087;28;20352;-76
2022/03/26 13:19:47;;;;;;;12.67;3.60;;;;;;;;;;5069379;28;20761;-76
2022/03/26 13:22:17;;;;;;;9.87;4.90;;;;;;;;;;5072990;28;20296;-76
2022/03/26 13:24:51;;;;;;;15.30;6.70;;;;;;;;;;5073447;28;20575;-76
2022/03/26 13:27:18;;;;;;;13.33;5.90;;;;;;;;;;5072509;28;20254;-76
2022/03/26 13:29:45;;;;;;;12.33;4.87;;;;;;;;;;5072880;28;20357;-76
2022/03/26 13:32:12;;;;;;;12.53;5.93;;;;;;;;;;5052834;28;20642;-76
2022/03/26 13:34:43;;;;;;;11.67;5.57;;;;;;;;;;5047449;28;20822;-76
2022/03/26 13:37:13;;;;;;;11.53;4.87;;;;;;;;;;5047286;28;20590;-76
2022/03/26 13:39:41;;;;;;;11.37;3.97;;;;;;;;;;5047455;28;20277;-76
2022/03/26 13:42:12;;;;;;;9.77;3.70;;;;;;;;;;5048933;28;20696;-76
2022/03/26 13:44:40;;;;;;;12.87;3.70;;;;;;;;;;5053450;28;20263;-76
2022/03/26 13:47:07;;;;;;;9.60;3.23;;;;;;;;;;5072877;28;20328;-76
2022/03/26 13:49:35;;;;;;;12.70;3.43;;;;;;;;;;5059024;28;20753;-76
2022/03/26 13:52:22;;;;;;;6.80;2.87;;;;;;;;;;5052589;28;20247;-76
2022/03/26 13:54:49;;;;;;;5.57;2.80;;;;;;;;;;5039325;28;20314;-77
2022/03/26 13:57:15;;;;;;;8.67;2.80;;;;;;;;;;5047290;28;20259;-77
2022/03/26 13:59:48;;;;;;;6.17;2.47;;;;;;;;;;5047478;28;20297;-77
2022/03/26 14:02:15;;;;;;;6.83;3.17;;;;;;;;;;5047225;28;20423;-76
2022/03/26 14:04:42;;;;;;;8.40;3.20;;;;;;;;;;5052711;28;20270;-77
2022/03/26 14:07:09;;;;;;;10.07;3.53;;;;;;;;;;5052337;28;20258;-77
2022/03/26 14:09:36;;;;;;;11.23;3.10;;;;;;;;;;5052370;28;20266;-77
2022/03/26 14:12:03;;;;;;;8.33;3.63;;;;;;;;;;5052564;28;20257;-77
2022/03/26 14:14:30;;;;;;;6.53;2.87;;;;;;;;;;5052395;28;20254;-77
2022/03/26 14:16:57;;;;;;;8.10;3.10;;;;;;;;;;5049329;28;20265;-77
2022/03/26 14:19:23;;;;;;;10.80;3.20;;;;;;;;;;5050160;28;20270;-78
2022/03/26 14:21:50;;;;;;;9.90;3.03;;;;;;;;;;5046993;28;20278;-77
2022/03/26 14:24:17;;;;;;;10.53;3.80;;;;;;;;;;5047119;28;20029;-77
2022/03/26 14:26:43;;;;;;;9.67;3.30;;;;;;;;;;5049214;28;20025;-77
2022/03/26 14:29:10;;;;;;;8.10;3.20;;;;;;;;;;5057759;28;20029;-77
2022/03/26 14:31:37;;;;;;;13.07;3.73;;;;;;;;;;5058935;28;20094;-77
2022/03/26 14:34:03;;;;;;;14.03;4.57;;;;;;;;;;5071429;28;20028;-77
2022/03/26 14:36:30;;;;;;;12.90;3.60;;;;;;;;;;5077754;28;20019;-77
2022/03/26 14:38:57;;;;;;;12.03;2.57;;;;;;;;;;5076183;28;20028;-77
2022/03/26 14:41:24;;;;;;;7.40;2.60;;;;;;;;;;5055360;28;20036;-78
2022/03/26 14:43:50;;;;;;;5.13;2.20;;;;;;;;;;5053514;28;20496;-78
2022/03/26 14:46:17;;;;;;;7.30;2.43;;;;;;;;;;5053459;28;20467;-77
2022/03/26 14:48:44;;;;;;;9.20;2.83;;;;;;;;;;5055377;28;20025;-77
2022/03/26 14:51:10;;;;;;;8.67;3.07;;;;;;;;;;5058221;28;20020;-78